Time;durP1;ratioP1;P1;durP2;ratioP2;P2;SDS_P1;SDS_P2;PMS_P1;PMS_P2;Temp;Humidity;BMP_temperature;BMP_pressure;BME280_temperature;BME280_humidity;BME280_pressure;Samples;Min_cycle;Max_cycle;Signal;HPM_P1;HPM_P2
2023/03/02 00:00:15;;;;;;;;;54.25;41.75;;;;;6.36;41.47;101598.00;4997287;28;45680;-68
2023/03/02 00:02:42;;;;;;;;;52.25;39.50;;;;;6.34;41.96;101592.75;5019615;28;45297;-68
2023/03/02 00:05:09;;;;;;;;;48.75;39.00;;;;;6.39;41.74;101603.31;5002078;28;45519;-67
2023/03/02 00:07:36;;;;;;;;;50.75;40.25;;;;;6.39;41.88;101610.22;5019758;28;45463;-67
2023/03/02 00:10:04;;;;;;;;;57.75;42.00;;;;;6.36;41.82;101609.28;5001921;28;45433;-67
2023/03/02 00:12:32;;;;;;;;;54.50;42.00;;;;;6.34;41.85;101603.16;5019660;28;45908;-67
2023/03/02 00:14:58;;;;;;;;;52.75;40.50;;;;;6.41;41.66;101618.94;5015289;28;45650;-67
2023/03/02 00:17:27;;;;;;;;;51.50;40.25;;;;;6.36;41.72;101606.69;5014920;28;46107;-68
2023/03/02 00:20:05;;;;;;;;;51.50;39.75;;;;;6.36;41.69;101605.81;5016902;28;45452;-68
2023/03/02 00:22:31;;;;;;;;;46.75;39.00;;;;;6.30;41.82;101592.59;5019458;28;45491;-68
2023/03/02 00:24:56;;;;;;;;;46.00;37.00;;;;;6.33;42.06;101601.38;5001772;28;45530;-68
2023/03/02 00:27:22;;;;;;;;;48.00;39.00;;;;;6.41;42.15;101617.25;5019294;28;45500;-66
2023/03/02 00:29:47;;;;;;;;;49.75;40.25;;;;;6.37;41.91;101613.66;5016614;28;45586;-67
2023/03/02 00:32:13;;;;;;;;;46.50;37.00;;;;;6.37;41.73;101610.19;5014561;28;45438;-68
2023/03/02 00:34:39;;;;;;;;;45.00;38.50;;;;;6.32;41.60;101609.16;4999500;28;45400;-68
2023/03/02 00:37:04;;;;;;;;;48.75;38.50;;;;;6.30;42.22;101597.78;5015874;28;46070;-67
2023/03/02 00:39:30;;;;;;;;;49.00;38.50;;;;;6.33;42.00;101611.78;5013498;28;45553;-68
2023/03/02 00:41:55;;;;;;;;;55.00;41.75;;;;;6.34;42.37;101603.16;5015735;28;45409;-69
2023/03/02 00:44:21;;;;;;;;;49.50;39.25;;;;;6.37;41.51;101612.78;5019031;28;45556;-66
2023/03/02 00:46:46;;;;;;;;;52.75;40.00;;;;;6.29;42.38;101612.53;5019202;28;45959;-67
2023/03/02 00:49:12;;;;;;;;;48.00;38.25;;;;;6.30;42.14;101601.28;5001049;28;45482;-67
2023/03/02 00:51:38;;;;;;;;;51.00;38.75;;;;;6.12;42.02;101572.94;4998145;28;45500;-67
2023/03/02 00:54:03;;;;;;;;;50.00;39.00;;;;;6.28;42.02;101605.53;5015139;28;45525;-67
2023/03/02 00:56:30;;;;;;;;;52.00;39.00;;;;;6.26;42.02;101607.19;5014409;28;45810;-69
2023/03/02 00:58:55;;;;;;;;;47.75;36.25;;;;;6.30;42.37;101613.41;5014677;28;45421;-67
2023/03/02 01:01:21;;;;;;;;;46.00;36.25;;;;;6.22;41.72;101610.56;5014704;28;45419;-67
2023/03/02 01:03:46;;;;;;;;;44.50;36.75;;;;;6.28;42.23;101622.88;4997323;28;45535;-67
2023/03/02 01:06:17;;;;;;;;;48.00;38.75;;;;;6.20;42.48;101603.53;5014376;28;46356;-68
2023/03/02 01:08:43;;;;;;;;;46.25;36.50;;;;;6.26;41.85;101617.59;5014430;28;45614;-69
2023/03/02 01:11:17;;;;;;;;;45.25;37.75;;;;;6.09;43.08;101591.03;4996145;28;45371;-68
2023/03/02 01:13:43;;;;;;;;;50.50;39.25;;;;;6.13;42.65;101592.91;5008442;28;45387;-66
2023/03/02 01:16:09;;;;;;;;;55.75;41.75;;;;;6.00;41.92;101582.91;5010190;28;46513;-68
2023/03/02 01:18:37;;;;;;;;;50.75;39.00;;;;;6.22;42.35;101614.88;4997618;28;46051;-68
2023/03/02 01:21:10;;;;;;;;;56.50;43.50;;;;;6.16;42.15;101605.13;5013912;28;45429;-67
2023/03/02 01:23:35;;;;;;;;;49.50;39.00;;;;;6.20;42.60;101611.34;5014491;28;45480;-67
2023/03/02 01:26:02;;;;;;;;;47.00;38.00;;;;;6.14;42.95;101602.47;5017725;28;46273;-67
2023/03/02 01:28:27;;;;;;;;;50.00;39.00;;;;;6.11;42.10;101606.69;5004673;28;45681;-68
2023/03/02 01:30:53;;;;;;;;;51.50;39.25;;;;;6.08;42.42;101599.69;4997826;28;45957;-67
2023/03/02 01:33:20;;;;;;;;;50.25;38.25;;;;;6.12;42.91;101613.66;5014608;28;45435;-67
2023/03/02 01:35:46;;;;;;;;;50.50;39.25;;;;;6.06;42.43;101598.75;5017149;28;46197;-68
2023/03/02 01:38:12;;;;;;;;;51.25;39.00;;;;;6.09;42.31;101608.34;5016016;28;45545;-67
2023/03/02 01:40:38;;;;;;;;;50.50;38.50;;;;;6.06;42.42;101601.34;5014337;28;45409;-67
2023/03/02 01:43:11;;;;;;;;;49.50;39.00;;;;;6.01;42.36;101596.81;5014242;28;45452;-68
2023/03/02 01:45:44;;;;;;;;;49.00;38.75;;;;;6.03;42.11;101597.75;4996566;28;46104;-65
2023/03/02 01:48:12;;;;;;;;;50.75;39.25;;;;;6.00;42.64;101597.63;5014009;28;45839;-68
2023/03/02 01:50:38;;;;;;;;;47.25;36.75;;;;;5.98;43.36;101594.09;5018237;28;45312;-65
2023/03/02 01:53:05;;;;;;;;;53.25;40.75;;;;;5.89;42.66;101576.44;5018499;28;45555;-66
2023/03/02 01:55:33;;;;;;;;;48.00;38.00;;;;;5.92;42.62;101593.03;4999760;28;45502;-67
2023/03/02 01:58:00;;;;;;;;;48.00;37.50;;;;;5.88;43.22;101580.75;5015533;28;45499;-66
2023/03/02 02:00:33;;;;;;;;;51.75;39.50;;;;;5.92;42.60;101584.34;5013973;28;45289;-67
2023/03/02 02:03:07;;;;;;;;;47.75;39.00;;;;;5.88;43.36;101577.25;5014075;28;45673;-67
2023/03/02 02:05:39;;;;;;;;;48.25;38.50;;;;;5.93;42.58;101587.00;4995388;28;47101;-67
2023/03/02 02:08:05;;;;;;;;;52.50;41.00;;;;;5.93;42.61;101587.00;5013338;28;45512;-66
2023/03/02 02:10:33;;;;;;;;;45.75;35.50;;;;;5.88;42.92;101578.13;5011952;28;45355;-67
2023/03/02 02:12:58;;;;;;;;;47.50;38.75;;;;;5.80;42.63;101569.19;5014945;28;45477;-67
2023/03/02 02:15:24;;;;;;;;;45.75;36.75;;;;;5.83;43.03;101579.69;5011931;28;47215;-67
2023/03/02 02:17:53;;;;;;;;;48.25;37.50;;;;;5.81;43.10;101581.34;5012436;28;45431;-66
2023/03/02 02:20:44;;;;;;;;;45.75;37.00;;;;;5.78;42.69;101576.06;5016243;28;45400;-66
2023/03/02 02:23:24;;;;;;;;;50.75;40.50;;;;;5.73;42.96;101577.63;5015181;28;45383;-67
2023/03/02 02:25:54;;;;;;;;;48.75;39.00;;;;;5.78;43.21;101572.59;5002060;28;45526;-67
2023/03/02 02:28:47;;;;;;;;;52.50;40.25;;;;;5.75;43.69;101578.56;5009668;28;45859;-68
2023/03/02 02:31:28;;;;;;;;;47.50;38.00;;;;;5.76;43.52;101577.72;4996493;28;45386;-68
2023/03/02 02:34:09;;;;;;;;;53.50;40.25;;;;;5.74;43.03;101581.97;4992368;28;45768;-68
2023/03/02 02:36:42;;;;;;;;;46.25;37.25;;;;;5.70;43.47;101567.13;4982603;28;45536;-67
2023/03/02 02:39:15;;;;;;;;;51.75;40.75;;;;;5.74;43.72;101571.56;5002491;28;45549;-68
2023/03/02 02:41:45;;;;;;;;;49.25;39.00;;;;;5.70;42.91;101568.00;5007871;28;45878;-69
2023/03/02 02:44:16;;;;;;;;;53.00;40.75;;;;;5.59;42.98;101545.94;5002138;28;45387;-69
2023/03/02 02:46:43;;;;;;;;;50.50;39.00;;;;;5.69;43.44;101566.22;5001452;28;45455;-68
2023/03/02 02:49:39;;;;;;;;;55.75;43.00;;;;;5.66;43.88;101568.72;4989168;28;45451;-68
2023/03/02 02:52:06;;;;;;;;;50.00;39.75;;;;;5.67;43.46;101565.31;4986357;28;45638;-67
2023/03/02 02:54:34;;;;;;;;;50.00;40.00;;;;;5.66;43.88;101567.84;5003298;28;45475;-67
2023/03/02 02:57:02;;;;;;;;;49.50;37.75;;;;;5.62;43.46;101559.03;4980884;28;47249;-68
2023/03/02 02:59:34;;;;;;;;;46.50;37.25;;;;;5.37;43.28;101513.13;4998271;28;45951;-68
2023/03/02 03:02:00;;;;;;;;;46.50;38.00;;;;;5.62;43.25;101553.84;5001356;28;45458;-68
2023/03/02 03:04:30;;;;;;;;;47.50;38.75;;;;;5.61;43.63;101557.28;5014683;28;46608;-69
2023/03/02 03:07:00;;;;;;;;;44.50;36.50;;;;;5.57;43.71;101550.19;5007326;28;46352;-68
2023/03/02 03:09:27;;;;;;;;;50.75;39.50;;;;;5.60;43.16;101559.81;5011284;28;45392;-66
2023/03/02 03:12:01;;;;;;;;;55.50;39.50;;;;;5.55;43.91;101554.44;4998008;28;45538;-68
2023/03/02 03:14:42;;;;;;;;;53.75;39.75;;;;;5.56;43.89;101564.03;5009361;28;45577;-69
2023/03/02 03:17:12;;;;;;;;;51.00;39.50;;;;;5.47;43.44;101548.97;5007703;28;45571;-68
2023/03/02 03:19:41;;;;;;;;;50.50;40.00;;;;;5.50;44.18;101562.13;5008847;28;45426;-67
2023/03/02 03:22:08;;;;;;;;;52.25;41.25;;;;;5.52;43.78;101563.03;5008449;28;45503;-67
2023/03/02 03:24:34;;;;;;;;;52.25;41.25;;;;;5.53;43.13;101558.72;5010752;28;45736;-67
2023/03/02 03:27:04;;;;;;;;;48.50;40.75;;;;;5.46;43.67;101557.63;5013815;28;45908;-68
2023/03/02 03:29:32;;;;;;;;;48.00;39.25;;;;;5.40;44.33;101543.53;5010924;28;45702;-69
2023/03/02 03:32:00;;;;;;;;;44.50;37.25;;;;;5.46;43.98;101557.63;5015847;28;46198;-69
2023/03/02 03:34:27;;;;;;;;;50.25;40.00;;;;;5.46;44.21;101559.34;4991538;28;45699;-68
2023/03/02 03:36:53;;;;;;;;;51.25;39.25;;;;;5.41;44.25;101559.19;5011920;28;45509;-67
2023/03/02 03:39:19;;;;;;;;;52.25;41.75;;;;;5.42;44.25;101560.94;5011895;28;45989;-70
2023/03/02 03:41:45;;;;;;;;;49.25;37.00;;;;;5.31;43.69;101534.59;5012797;28;45970;-70
2023/03/02 03:44:11;;;;;;;;;50.75;39.25;;;;;5.44;44.05;101559.28;4995791;28;45685;-68
2023/03/02 03:46:37;;;;;;;;;45.75;37.00;;;;;5.34;44.60;101539.00;5008780;28;46109;-66
2023/03/02 03:49:03;;;;;;;;;51.50;36.75;;;;;5.37;43.62;101546.03;5013061;28;45648;-68
2023/03/02 03:51:33;;;;;;;;;53.50;42.00;;;;;5.38;43.85;101547.78;5000195;28;45426;-69
2023/03/02 03:54:03;;;;;;;;;47.75;37.75;;;;;5.34;44.90;101544.19;5001211;28;45541;-69
2023/03/02 03:56:32;;;;;;;;;50.50;39.00;;;;;5.41;44.16;101553.97;4984880;28;46902;-68
2023/03/02 03:59:07;;;;;;;;;49.75;37.00;;;;;5.37;44.44;101554.69;4998846;28;45820;-67
2023/03/02 04:01:39;;;;;;;;;48.00;37.75;;;;;5.40;44.35;101562.59;4998594;28;45709;-68
2023/03/02 04:04:07;;;;;;;;;50.75;39.50;;;;;5.36;44.27;101554.63;4981445;28;45526;-67
2023/03/02 04:06:32;;;;;;;;;53.00;41.75;;;;;5.39;44.03;101560.81;4999310;28;46259;-68
2023/03/02 04:09:03;;;;;;;;;50.00;40.25;;;;;5.37;43.83;101559.00;4983260;28;45462;-68
2023/03/02 04:11:36;;;;;;;;;51.25;38.25;;;;;5.34;44.70;101552.00;4984683;28;45430;-68
2023/03/02 04:14:02;;;;;;;;;48.50;39.00;;;;;5.40;44.05;101562.59;4985035;28;45337;-68
2023/03/02 04:16:29;;;;;;;;;51.25;39.00;;;;;5.41;44.68;101564.38;5002193;28;46275;-68
2023/03/02 04:18:55;;;;;;;;;53.50;41.25;;;;;5.38;44.45;101571.16;4999136;28;45472;-68
2023/03/02 04:21:21;;;;;;;;;52.00;41.00;;;;;5.39;44.06;101570.34;4993751;28;45535;-68
2023/03/02 04:23:47;;;;;;;;;57.50;41.75;;;;;5.30;44.55;101555.28;4999881;28;45491;-69
2023/03/02 04:26:13;;;;;;;;;46.25;38.75;;;;;5.31;44.60;101563.16;5015479;28;45529;-68
2023/03/02 04:28:38;;;;;;;;;51.25;40.75;;;;;5.35;44.21;101566.72;5015280;28;45712;-69
2023/03/02 04:31:04;;;;;;;;;50.25;38.25;;;;;5.28;44.58;101554.34;5015390;28;45454;-70
2023/03/02 04:33:30;;;;;;;;;55.25;42.00;;;;;5.34;44.36;101562.38;5015291;28;45502;-69
2023/03/02 04:35:55;;;;;;;;;49.25;38.50;;;;;5.35;44.77;101569.34;5014950;28;46248;-69
2023/03/02 04:38:21;;;;;;;;;50.00;40.75;;;;;5.35;44.64;101571.06;5013636;28;45811;-68
2023/03/02 04:40:47;;;;;;;;;52.00;40.75;;;;;5.30;44.64;101556.16;5017077;28;45463;-68
2023/03/02 04:43:12;;;;;;;;;53.25;40.75;;;;;5.32;44.09;101570.09;5015922;28;45560;-69
2023/03/02 04:45:39;;;;;;;;;54.50;42.00;;;;;5.27;44.51;101561.25;5014768;28;46371;-68
2023/03/02 04:48:06;;;;;;;;;53.00;42.50;;;;;5.22;44.84;101560.22;5001304;28;45470;-67
2023/03/02 04:50:33;;;;;;;;;52.25;43.50;;;;;5.22;44.45;101568.00;5019236;28;45405;-68
2023/03/02 04:52:59;;;;;;;;;54.75;44.00;;;;;5.25;44.85;101575.03;5011644;28;45495;-67
2023/03/02 04:55:26;;;;;;;;;52.75;40.50;;;;;5.22;44.42;101582.69;5012144;28;45950;-68
2023/03/02 04:57:52;;;;;;;;;52.00;41.00;;;;;5.18;44.29;101567.84;5013469;28;45646;-67
2023/03/02 05:00:19;;;;;;;;;55.00;41.50;;;;;5.23;44.93;101582.75;4997347;28;45402;-67
2023/03/02 05:02:46;;;;;;;;;52.25;41.75;;;;;5.15;44.59;101570.28;5014471;28;45554;-66
2023/03/02 05:05:21;;;;;;;;;54.00;42.33;;;;;5.19;44.47;101575.66;5015735;28;45842;-67
2023/03/02 05:07:46;;;;;;;;;50.67;40.00;;;;;5.16;44.44;101561.69;5000523;28;45462;-67
2023/03/02 05:10:15;;;;;;;;;53.00;41.67;;;;;5.18;44.68;101563.53;5018466;28;45435;-68
2023/03/02 05:12:54;;;;;;;;;51.75;40.00;;;;;5.18;44.64;101566.13;5014962;28;45416;-67
2023/03/02 05:15:25;;;;;;;;;50.75;41.50;;;;;5.18;44.74;101566.13;4978422;28;47160;-68
2023/03/02 05:17:51;;;;;;;;;54.50;42.75;;;;;5.06;44.69;101557.88;5006185;28;45313;-67
2023/03/02 05:20:18;;;;;;;;;50.33;40.33;;;;;5.17;45.18;101573.84;5017123;28;45408;-67
2023/03/02 05:22:43;;;;;;;;;49.50;38.75;;;;;5.18;45.02;101580.81;5005940;28;45521;-67
2023/03/02 05:25:09;;;;;;;;;51.25;39.50;;;;;5.16;44.81;101575.56;5014301;28;45661;-66
2023/03/02 05:27:35;;;;;;;;;49.33;40.67;;;;;5.12;45.08;101571.06;5014180;28;45364;-67
2023/03/02 05:30:05;;;;;;;;;56.00;41.67;;;;;5.13;45.46;101577.16;5015059;28;45479;-67
2023/03/02 05:32:30;;;;;;;;;54.67;44.00;;;;;5.12;44.80;101575.38;5018745;28;46113;-67
2023/03/02 05:34:56;;;;;;;;;52.67;42.00;;;;;5.10;44.72;101571.03;5018688;28;46585;-67
2023/03/02 05:37:21;;;;;;;;;54.50;43.50;;;;;5.09;45.57;101569.25;5017303;28;45335;-67
2023/03/02 05:39:47;;;;;;;;;51.67;40.67;;;;;5.04;44.94;101569.91;5017370;28;45340;-67
2023/03/02 05:42:12;;;;;;;;;54.67;42.00;;;;;5.02;44.97;101566.38;5018782;28;45416;-67
2023/03/02 05:44:38;;;;;;;;;52.67;42.67;;;;;5.07;45.25;101581.28;5017099;28;45435;-67
2023/03/02 05:47:04;;;;;;;;;47.50;38.50;;;;;5.05;44.88;101574.25;5017973;28;45428;-67
2023/03/02 05:49:29;;;;;;;;;54.33;43.00;;;;;5.06;45.29;101581.25;5018251;28;45287;-67
2023/03/02 05:51:55;;;;;;;;;50.00;40.00;;;;;4.98;44.76;101572.25;5017304;28;45557;-67
2023/03/02 05:54:20;;;;;;;;;52.75;40.50;;;;;4.95;45.64;101572.16;5013330;28;45984;-67
2023/03/02 05:56:46;;;;;;;;;49.75;40.00;;;;;5.00;45.35;101588.78;5013671;28;45455;-67
2023/03/02 05:59:11;;;;;;;;;51.75;41.00;;;;;4.99;45.35;101585.31;5013524;28;45505;-67
2023/03/02 06:01:37;;;;;;;;;54.33;40.67;;;;;4.90;45.07;101582.34;5013739;28;45496;-66
2023/03/02 06:04:03;;;;;;;;;49.67;40.67;;;;;4.93;45.56;101595.44;5013417;28;46678;-66
2023/03/02 06:06:28;;;;;;;;;52.67;42.00;;;;;4.89;45.37;101588.38;4999463;28;45300;-68
2023/03/02 06:08:54;;;;;;;;;55.00;42.67;;;;;4.91;45.46;101588.44;5000014;28;45352;-67
2023/03/02 06:11:19;;;;;;;;;52.67;39.33;;;;;4.91;45.67;101598.81;5016715;28;45628;-67
2023/03/02 06:13:45;;;;;;;;;54.33;42.00;;;;;4.96;45.46;101607.66;5008489;28;45375;-68
2023/03/02 06:16:14;;;;;;;;;49.67;36.33;;;;;4.94;45.05;101604.16;5010431;28;45480;-68
2023/03/02 06:18:43;;;;;;;;;50.00;41.00;;;;;4.93;45.78;101608.44;5009234;28;45494;-67
2023/03/02 06:21:09;;;;;;;;;55.00;41.75;;;;;4.86;45.82;101596.94;5013926;28;45555;-68
2023/03/02 06:23:38;;;;;;;;;53.67;42.67;;;;;4.93;45.07;101603.25;4997236;28;46875;-68
2023/03/02 06:26:11;;;;;;;;;50.33;41.00;;;;;4.81;44.88;101585.47;5011434;28;45264;-68
2023/03/02 06:28:38;;;;;;;;;53.00;42.67;;;;;4.80;45.37;101588.91;5011439;28;45581;-68
2023/03/02 06:31:04;;;;;;;;;52.67;43.33;;;;;4.92;45.16;101614.47;4993686;28;45522;-70
2023/03/02 06:33:31;;;;;;;;;53.67;42.00;;;;;4.87;45.40;101606.50;5008253;28;46097;-68
2023/03/02 06:35:57;;;;;;;;;56.33;43.00;;;;;4.87;45.36;101608.22;4993833;28;45588;-68
2023/03/02 06:38:22;;;;;;;;;51.75;42.00;;;;;4.93;44.91;101625.72;4978426;28;45872;-67
2023/03/02 06:40:48;;;;;;;;;55.33;43.00;;;;;4.92;45.43;101616.19;5010421;28;46311;-67
2023/03/02 06:43:14;;;;;;;;;58.50;42.25;;;;;4.90;45.52;101613.50;5003264;28;45537;-67
2023/03/02 06:45:39;;;;;;;;;55.50;42.00;;;;;4.88;45.60;101610.84;5000957;28;45557;-68
2023/03/02 06:48:06;;;;;;;;;52.00;41.00;;;;;4.84;45.59;101603.78;4996646;28;45574;-68
2023/03/02 06:50:32;;;;;;;;;55.00;42.33;;;;;4.93;45.26;101611.03;4977846;28;45542;-67
2023/03/02 06:52:58;;;;;;;;;57.67;42.00;;;;;5.01;45.08;101624.31;4998613;28;46210;-67
2023/03/02 06:55:24;;;;;;;;;56.33;43.33;;;;;4.99;45.13;101621.66;4999585;28;45365;-67
2023/03/02 06:57:49;;;;;;;;;53.67;43.67;;;;;5.04;44.75;101625.31;4983148;28;45445;-67
2023/03/02 07:00:17;;;;;;;;;53.67;41.00;;;;;5.11;44.81;101629.03;5001679;28;45356;-68
2023/03/02 07:02:44;;;;;;;;;54.00;42.67;;;;;5.09;44.75;101621.19;4983308;28;46750;-67
2023/03/02 07:05:10;;;;;;;;;55.00;41.00;;;;;5.14;44.86;101636.94;4998684;28;45756;-66
2023/03/02 07:07:36;;;;;;;;;58.67;44.67;;;;;5.05;44.67;101621.91;5002992;28;45452;-68
2023/03/02 07:10:01;;;;;;;;;54.33;43.00;;;;;5.05;44.89;101618.41;5002956;28;45633;-69
2023/03/02 07:12:27;;;;;;;;;53.33;43.00;;;;;5.16;45.07;101639.59;4998509;28;45817;-67
2023/03/02 07:14:52;;;;;;;;;51.33;40.33;;;;;5.16;44.79;101637.00;4982516;28;45503;-67
2023/03/02 07:17:18;;;;;;;;;56.67;43.00;;;;;5.17;45.22;101634.44;4998787;28;45401;-68
2023/03/02 07:19:44;;;;;;;;;56.00;42.50;;;;;5.15;45.25;101625.75;5003939;28;45491;-67
2023/03/02 07:22:09;;;;;;;;;53.00;42.00;;;;;5.19;45.21;101617.22;4998279;28;46038;-68
2023/03/02 07:24:35;;;;;;;;;57.75;45.00;;;;;5.17;44.92;101610.19;5002830;28;45518;-69
2023/03/02 07:27:00;;;;;;;;;53.50;41.75;;;;;5.26;44.69;101620.94;5018305;28;46189;-67
2023/03/02 07:29:26;;;;;;;;;54.00;43.00;;;;;5.32;45.07;101621.19;5016745;28;45565;-66
2023/03/02 07:31:55;;;;;;;;;56.00;44.33;;;;;5.35;45.25;101607.41;5017816;28;47073;-66
2023/03/02 07:34:23;;;;;;;;;55.33;42.67;;;;;5.41;44.46;101615.44;5015973;28;45388;-67
2023/03/02 07:36:49;;;;;;;;;57.00;42.67;;;;;5.42;44.65;101605.09;5006284;28;45467;-67
2023/03/02 07:39:15;;;;;;;;;50.67;42.00;;;;;5.45;44.44;101602.59;4999803;28;45428;-67
2023/03/02 07:41:40;;;;;;;;;59.67;44.00;;;;;5.44;45.35;101600.84;5000145;28;46677;-67
2023/03/02 07:44:06;;;;;;;;;53.33;44.00;;;;;5.57;44.74;101614.28;5003636;28;45694;-67
2023/03/02 07:46:31;;;;;;;;;61.00;46.00;;;;;5.62;44.71;101620.53;5002498;28;45515;-68
2023/03/02 07:48:58;;;;;;;;;55.67;43.33;;;;;5.66;44.06;101615.50;5001757;28;45537;-66
2023/03/02 07:51:23;;;;;;;;;57.75;43.00;;;;;5.76;43.92;101624.50;4997613;28;46081;-67
2023/03/02 07:53:49;;;;;;;;;57.33;44.00;;;;;5.74;44.66;101606.28;4999358;28;45497;-67
2023/03/02 07:56:16;;;;;;;;;57.33;45.00;;;;;5.92;43.93;101626.81;5003599;28;45674;-69
2023/03/02 07:58:42;;;;;;;;;56.33;44.67;;;;;5.93;43.74;101618.22;4999008;28;45774;-68
2023/03/02 08:01:08;;;;;;;;;60.33;46.33;;;;;5.99;43.33;101617.56;4999154;28;46061;-67
2023/03/02 08:03:35;;;;;;;;;54.75;45.25;;;;;6.03;43.87;101613.38;4983768;28;45465;-67
2023/03/02 08:06:08;;;;;;;;;58.33;45.67;;;;;6.06;43.81;101610.88;5000889;28;45420;-66
2023/03/02 08:08:35;;;;;;;;;60.00;46.00;;;;;6.21;42.98;101618.28;4998285;28;45489;-69
2023/03/02 08:11:09;;;;;;;;;59.33;44.00;;;;;6.25;43.88;101626.25;4981646;28;45536;-68
2023/03/02 08:13:35;;;;;;;;;56.67;44.00;;;;;6.28;42.87;101625.47;5001487;28;45523;-67
2023/03/02 08:16:02;;;;;;;;;52.25;42.50;;;;;6.41;43.03;101644.97;4997303;28;45527;-68
2023/03/02 08:18:28;;;;;;;;;60.67;45.00;;;;;6.48;42.74;101644.38;5000024;28;45842;-69
2023/03/02 08:20:55;;;;;;;;;54.00;45.00;;;;;6.50;43.03;101627.06;4984194;28;48178;-67
2023/03/02 08:23:20;;;;;;;;;61.33;46.33;;;;;6.64;43.20;101630.13;5015213;28;45541;-67
2023/03/02 08:25:46;;;;;;;;;58.75;46.50;;;;;6.80;42.37;101632.38;5003302;28;45400;-68
2023/03/02 08:28:11;;;;;;;;;61.00;45.75;;;;;6.92;43.19;101621.47;5001192;28;45448;-68
2023/03/02 08:30:38;;;;;;;;;59.33;47.00;;;;;7.01;42.87;101622.63;4990637;28;45937;-67
2023/03/02 08:33:04;;;;;;;;;59.67;42.67;;;;;7.20;42.05;101629.28;4982810;28;45893;-68
2023/03/02 08:35:30;;;;;;;;;57.00;46.00;;;;;7.20;41.89;101612.78;5005051;28;45688;-67
2023/03/02 08:37:55;;;;;;;;;58.50;45.75;;;;;7.33;42.01;101616.63;5003441;28;45414;-67
2023/03/02 08:40:21;;;;;;;;;58.75;46.00;;;;;7.40;41.03;101626.38;4989006;28;45877;-68
2023/03/02 08:42:48;;;;;;;;;59.50;46.50;;;;;7.36;43.31;101608.91;4985510;28;45510;-69
2023/03/02 08:45:14;;;;;;;;;62.33;47.67;;;;;7.47;41.38;101615.28;4983380;28;45490;-68
2023/03/02 08:47:40;;;;;;;;;62.00;46.33;;;;;7.50;41.05;101604.06;4989130;28;45497;-68
2023/03/02 08:50:06;;;;;;;;;62.75;49.75;;;;;7.54;41.51;101598.09;4983579;28;46877;-67
2023/03/02 08:52:33;;;;;;;;;62.00;47.00;;;;;7.62;41.00;101594.88;5007336;28;45341;-68
2023/03/02 08:54:59;;;;;;;;;53.50;43.50;;;;;7.80;40.88;101601.44;5006340;28;45357;-68
2023/03/02 08:57:24;;;;;;;;;58.33;45.33;;;;;7.82;40.63;101591.94;4981286;28;45644;-65
2023/03/02 08:59:51;;;;;;;;;55.25;45.25;;;;;8.03;40.65;101597.72;4981648;28;48005;-68
2023/03/02 09:02:17;;;;;;;;;57.75;44.00;;;;;8.16;40.45;101590.19;4998717;28;45464;-68
2023/03/02 09:04:42;;;;;;;;;62.00;46.00;;;;;8.24;39.82;101589.56;4986245;28;45454;-68
2023/03/02 09:07:08;;;;;;;;;60.25;46.00;;;;;8.38;39.40;101594.25;4998292;28;45391;-68
2023/03/02 09:09:34;;;;;;;;;61.67;48.33;;;;;8.43;40.87;101588.31;5001289;28;46489;-68
2023/03/02 09:12:00;;;;;;;;;61.50;48.00;;;;;8.56;40.00;101589.50;5001234;28;45598;-69
2023/03/02 09:14:26;;;;;;;;;60.75;47.25;;;;;8.59;39.46;101591.28;4999737;28;45432;-68
2023/03/02 09:16:52;;;;;;;;;62.75;48.75;;;;;8.60;39.37;101583.50;4983113;28;45733;-71
2023/03/02 09:19:18;;;;;;;;;62.00;49.25;;;;;8.73;39.64;101592.50;5000966;28;46086;-69
2023/03/02 09:21:44;;;;;;;;;60.50;47.75;;;;;8.79;39.16;101581.31;5011885;28;45677;-69
2023/03/02 09:24:10;;;;;;;;;63.00;47.00;;;;;8.91;39.17;101586.81;4996521;28;45727;-70
2023/03/02 09:26:37;;;;;;;;;60.50;46.75;;;;;9.09;39.15;101599.44;5014353;28;45557;-67
2023/03/02 09:29:02;;;;;;;;;66.50;50.25;;;;;9.22;38.82;101593.59;4995946;28;47252;-69
2023/03/02 09:31:28;;;;;;;;;62.00;50.75;;;;;9.31;38.47;101583.34;5014426;28;45391;-70
2023/03/02 09:33:55;;;;;;;;;61.00;48.00;;;;;9.43;38.25;101576.59;5014408;28;45367;-65
2023/03/02 09:36:23;;;;;;;;;62.00;47.00;;;;;9.69;38.18;101582.34;5000796;28;45645;-68
2023/03/02 09:38:50;;;;;;;;;68.50;51.75;;;;;9.80;37.25;101586.06;5014027;28;45546;-68
2023/03/02 09:41:19;;;;;;;;;62.00;51.00;;;;;9.87;37.43;101587.94;5015977;28;45682;-69
2023/03/02 09:43:57;;;;;;;;;56.25;46.00;;;;;10.02;37.71;101584.69;5014599;28;45814;-68
2023/03/02 09:46:35;;;;;;;;;68.00;51.00;;;;;10.06;37.13;101564.69;5013954;28;45554;-69
2023/03/02 09:49:48;;;;;;;;;67.25;50.50;;;;;10.31;37.07;101581.72;5012953;28;47765;-66
2023/03/02 09:52:27;;;;;;;;;65.00;50.25;;;;;10.47;36.67;101590.72;4967288;28;46359;-67
2023/03/02 09:54:52;;;;;;;;;62.75;47.75;;;;;10.59;36.62;101588.28;5013553;28;45474;-67
2023/03/02 09:57:36;;;;;;;;;66.00;52.25;;;;;10.78;36.41;101576.34;5014232;28;45457;-67
2023/03/02 10:00:07;;;;;;;;;58.75;47.00;;;;;10.94;35.93;101561.69;5011838;28;46750;-69
2023/03/02 10:02:53;;;;;;;;;53.50;44.75;;;;;11.16;36.89;101574.25;5011685;28;46072;-71
2023/03/02 10:05:46;;;;;;;;;53.00;41.25;;;;;11.30;35.56;101586.69;5005134;28;45459;-67
2023/03/02 10:08:15;;;;;;;;;60.25;47.50;;;;;11.47;35.66;101585.13;5001241;28;45713;-69
2023/03/02 10:11:12;;;;;;;;;54.75;46.00;;;;;11.90;34.98;101572.50;4995862;28;47833;-70
2023/03/02 10:13:55;;;;;;;;;57.75;44.50;;;;;12.40;33.92;101589.59;5016996;28;45379;-68
2023/03/02 10:16:48;;;;;;;;;50.25;41.25;;;;;12.70;33.44;101587.19;5015771;28;46135;-68
2023/03/02 10:19:46;;;;;;;;;48.75;39.50;;;;;13.05;33.42;101578.66;5008866;28;45332;-68
2023/03/02 10:22:23;;;;;;;;;53.25;41.75;;;;;13.38;32.57;101573.53;4997186;28;45641;-70
2023/03/02 10:25:07;;;;;;;;;52.00;41.00;;;;;13.90;32.11;101576.31;4986282;28;45424;-69
2023/03/02 10:27:40;;;;;;;;;52.25;38.75;;;;;14.40;31.49;101579.00;4997130;28;45505;-68
2023/03/02 10:30:26;;;;;;;;;53.00;42.25;;;;;15.18;29.96;101570.06;5006324;28;45380;-70
2023/03/02 10:32:55;;;;;;;;;22.75;17.25;;;;;16.44;28.75;101563.13;5002731;28;46470;-68
2023/03/02 10:35:23;;;;;;;;;47.25;35.75;;;;;17.81;27.08;101557.16;5006621;28;45667;-68
2023/03/02 10:38:10;;;;;;;;;44.50;36.00;;;;;19.65;24.69;101552.88;5007785;28;45407;-70
2023/03/02 10:40:46;;;;;;;;;54.50;41.50;;;;;21.12;23.25;101551.78;5014976;28;45806;-67
2023/03/02 10:43:20;;;;;;;;;46.75;39.50;;;;;21.97;22.31;101554.53;5017332;28;45704;-68
2023/03/02 10:46:01;;;;;;;;;48.75;38.25;;;;;22.60;21.63;101542.66;5013535;28;45435;-68
2023/03/02 10:48:27;;;;;;;;;50.25;38.25;;;;;23.21;21.00;101544.91;5014386;28;45470;-68
2023/03/02 10:50:55;;;;;;;;;45.75;35.50;;;;;24.13;20.49;101541.28;5017074;28;45373;-66
2023/03/02 10:53:21;;;;;;;;;45.75;37.50;;;;;24.78;19.21;101534.97;5016963;28;45436;-68
2023/03/02 10:55:50;;;;;;;;;50.50;38.50;;;;;25.23;19.22;101537.38;5017106;28;45368;-67
2023/03/02 10:58:32;;;;;;;;;45.25;34.25;;;;;25.69;18.51;101520.88;5017360;28;45522;-68
2023/03/02 11:01:04;;;;;;;;;47.75;39.50;;;;;26.35;18.17;101526.53;5004450;28;45369;-68
2023/03/02 11:03:32;;;;;;;;;42.75;36.00;;;;;26.93;18.11;101506.47;5015909;28;45806;-67
2023/03/02 11:06:11;;;;;;;;;42.50;35.50;;;;;27.79;17.39;101525.91;5018854;28;45390;-71
2023/03/02 11:08:36;;;;;;;;;40.00;33.67;;;;;28.45;16.57;101527.41;4996694;28;45495;-67
2023/03/02 11:11:03;;;;;;;;;46.00;36.33;;;;;28.92;15.91;101525.44;5006462;28;45730;-69
2023/03/02 11:13:37;;;;;;;;;46.33;38.67;;;;;29.43;15.58;101508.78;5011508;28;45764;-69
2023/03/02 11:16:30;;;;;;;;;47.00;37.00;;;;;30.11;15.77;101524.94;4994897;28;45626;-67
2023/03/02 11:19:28;;;;;;;;;36.00;33.00;;;;;30.60;15.01;101509.88;5012864;28;45571;-67
2023/03/02 11:22:14;;;;;;;;;45.33;37.00;;;;;31.07;15.29;101511.06;4977525;28;45908;-69
2023/03/02 11:24:47;;;;;;;;;44.67;37.33;;;;;31.33;14.36;101484.81;4983051;28;48012;-67